メインページ
METAR-TAF:

METAR-TAF

空港 :

ソルトレイクシティ, ユタ州, アメリカ合衆国

ソルトレイクシティ国際空港

緯度: 40-46-41N, 経度: 111-58-10W, 海抜: 1288m

現時点の気象観測

当レポートは40分前の21:54(UTC)に作成
の風 7kt
気温 31°C
湿度 36%
気圧 1020 hPa
視程: 16.1km
高度5500ftの雲はほとんどない, 塔状積雲.
高度6000ftの雲はほとんどない
高度8000ftの雲はほとんどない
高度25000ftの雲は散在している

METAR: KSLC 262154Z 01007KT 10SM FEW055TCU FEW060 FEW080 SCT250 31/14 A3013 RMK AO2 SLP145 VIRGA DSNT S CB DSNT ALQDS TCU DSNT N AND E-SW T03060144

時間: 16:34 (22:34 UTC)

予報

当レポートは1時間37分前の20:57(UTC)に作成
予報は26日の 21時(UTC)から 27日の 24時(UTC)まで有効
の風 7kt
視程: 10km
高度8000ftの雲はほとんどない
高度12000ftの雲は散在している
27日の 0300時(UTC)から
南/南東の風 6kt
視程: 10km
高度8000ftの雲は散在している
高度12000ftの千切れ雲あり
27日の 1900時(UTC)から
北/北西の風 7kt
視程: 10km
高度12000ftの雲はほとんどない

TAF: KSLC 262057Z 2621/2724 35007KT P6SM FEW080 SCT120 FM270300 16006KT P6SM SCT080 BKN120 FM271900 33007KT P6SM FEW120

4,000以上の空港の気象観測と天気予報(METAR報とTAF報)

利用可能な観測所は地図上に黄色い丸と赤い丸で示す。

丸の上にカーソルを重ねると観測所名を参照できる。

次にクリックすると気象観測と天気予報を参照できる。

マップの切り替え:黒色「×」印の緑ボタンをクリックして拡大、「-」印の緑ボタンをクリックして縮小、緑色の三角印をクリックして隣りの地図に切り替え


METAR-TAF: